Time;durP1;ratioP1;P1;durP2;ratioP2;P2;SDS_P1;SDS_P2;PMS_P1;PMS_P2;Temp;Humidity;BMP_temperature;BMP_pressure;BME280_temperature;BME280_humidity;BME280_pressure;Samples;Min_cycle;Max_cycle;Signal;HPM_P1;HPM_P2
2023/05/27 00:02:08;;;;;;;8.88;1.50;;;9.60;99.90;;;;;;5137223;27;20047;-75
2023/05/27 00:04:34;;;;;;;6.60;1.40;;;9.60;99.90;;;;;;5118877;27;20054;-75
2023/05/27 00:07:00;;;;;;;8.10;1.50;;;9.60;99.90;;;;;;5119805;27;20043;-75
2023/05/27 00:09:26;;;;;;;5.97;1.67;;;9.70;99.90;;;;;;5118831;27;20043;-75
2023/05/27 00:11:51;;;;;;;6.85;1.85;;;9.60;99.90;;;;;;5137796;27;20046;-76
2023/05/27 00:14:17;;;;;;;6.15;1.88;;;9.50;99.90;;;;;;5118804;27;20043;-75
2023/05/27 00:16:43;;;;;;;7.00;1.65;;;9.50;99.90;;;;;;5136962;27;20039;-75
2023/05/27 00:19:09;;;;;;;8.95;1.70;;;9.50;99.90;;;;;;5119147;27;20088;-75
2023/05/27 00:21:35;;;;;;;5.80;1.58;;;9.50;99.90;;;;;;5118476;27;20095;-75
2023/05/27 00:24:01;;;;;;;5.35;1.58;;;9.40;99.90;;;;;;5136763;27;20156;-75
2023/05/27 00:26:27;;;;;;;7.00;1.77;;;9.50;99.90;;;;;;5136720;27;20086;-75
2023/05/27 00:28:52;;;;;;;7.00;1.70;;;9.40;99.90;;;;;;5136725;27;20097;-75
2023/05/27 00:31:18;;;;;;;7.00;1.60;;;9.40;99.90;;;;;;5136919;27;20432;-75
2023/05/27 00:33:44;;;;;;;6.88;2.05;;;9.40;99.90;;;;;;5136518;27;20475;-76
2023/05/27 00:36:10;;;;;;;10.02;1.38;;;9.40;99.90;;;;;;5137101;27;20083;-75
2023/05/27 00:38:36;;;;;;;5.05;1.45;;;9.40;99.90;;;;;;5136519;27;20432;-75
2023/05/27 00:41:03;;;;;;;5.03;2.03;;;9.40;99.90;;;;;;5101348;27;20058;-75
2023/05/27 00:43:32;;;;;;;7.30;1.45;;;9.30;99.90;;;;;;5101344;27;20051;-75
2023/05/27 00:45:58;;;;;;;5.43;1.63;;;9.30;99.90;;;;;;5118252;27;20039;-76
2023/05/27 00:48:25;;;;;;;10.00;1.80;;;9.30;99.90;;;;;;5117100;27;20045;-76
2023/05/27 00:50:51;;;;;;;7.80;2.03;;;9.30;99.90;;;;;;5118131;27;20052;-76
2023/05/27 00:53:17;;;;;;;7.82;1.85;;;9.30;99.90;;;;;;5118148;27;20051;-75
2023/05/27 00:55:43;;;;;;;10.55;1.85;;;9.30;99.90;;;;;;5136234;27;20053;-76
2023/05/27 00:58:09;;;;;;;7.35;1.60;;;9.20;99.90;;;;;;5136092;27;20129;-76
2023/05/27 01:00:38;;;;;;;7.22;2.03;;;9.20;99.90;;;;;;5117620;27;20046;-76
2023/05/27 01:03:07;;;;;;;8.82;1.70;;;9.20;99.90;;;;;;5135629;27;20399;-76
2023/05/27 01:05:33;;;;;;;7.07;1.70;;;9.20;99.90;;;;;;5117662;27;20043;-75
2023/05/27 01:08:05;;;;;;;6.88;2.08;;;9.20;99.90;;;;;;5117815;27;20045;-76
2023/05/27 01:10:48;;;;;;;8.18;2.28;;;9.20;99.90;;;;;;5135927;27;20134;-76
2023/05/27 01:13:30;;;;;;;7.03;1.90;;;9.20;99.90;;;;;;5118249;27;20043;-76
2023/05/27 01:16:00;;;;;;;6.13;1.98;;;9.20;99.90;;;;;;5136318;27;20050;-75
2023/05/27 01:18:31;;;;;;;5.93;1.85;;;9.10;99.90;;;;;;5117622;27;20062;-75
2023/05/27 01:21:02;;;;;;;8.05;1.88;;;9.10;99.90;;;;;;5135733;27;20093;-76
2023/05/27 01:23:29;;;;;;;8.18;1.90;;;9.10;99.90;;;;;;5117926;27;20479;-75
2023/05/27 01:25:54;;;;;;;9.43;2.20;;;9.10;99.90;;;;;;5135625;27;20047;-75
2023/05/27 01:28:20;;;;;;;7.25;1.95;;;9.00;99.90;;;;;;5117224;27;20460;-75
2023/05/27 01:30:47;;;;;;;7.75;1.95;;;9.00;99.90;;;;;;5117798;27;20058;-76
2023/05/27 01:33:20;;;;;;;7.57;2.03;;;9.00;99.90;;;;;;5117193;27;20387;-76
2023/05/27 01:35:51;;;;;;;;;;;9.00;99.90;;;;;;5117780;27;20058;-76
2023/05/27 01:38:19;;;;;;;6.85;1.70;;;9.00;99.90;;;;;;5135026;27;20435;-75
2023/05/27 01:40:47;;;;;;;4.82;1.55;;;9.00;99.90;;;;;;5135318;27;20137;-76
2023/05/27 01:43:15;;;;;;;9.48;2.00;;;9.00;99.90;;;;;;5116848;27;20043;-75
2023/05/27 01:45:42;;;;;;;5.78;2.33;;;9.10;99.90;;;;;;5136073;27;20436;-75
2023/05/27 01:48:09;;;;;;;10.02;1.90;;;9.10;99.90;;;;;;5135162;27;20082;-76
2023/05/27 01:50:35;;;;;;;6.28;1.88;;;9.10;99.90;;;;;;5116986;27;20121;-75
2023/05/27 01:53:03;;;;;;;8.63;2.25;;;9.10;99.90;;;;;;5135944;27;20372;-75
2023/05/27 01:55:30;;;;;;;8.55;1.95;;;9.10;99.90;;;;;;5135069;27;20058;-76
2023/05/27 01:57:56;;;;;;;7.80;2.10;;;9.20;99.90;;;;;;5116612;27;20051;-75
2023/05/27 02:00:22;;;;;;;4.38;1.50;;;9.30;99.90;;;;;;5134960;27;20054;-75
2023/05/27 02:02:48;;;;;;;6.97;1.67;;;9.20;99.90;;;;;;5117166;27;20039;-75
2023/05/27 02:05:14;;;;;;;7.30;2.20;;;9.20;99.90;;;;;;5116640;27;20390;-76
2023/05/27 02:07:40;;;;;;;7.20;1.75;;;9.20;99.90;;;;;;5135195;27;20492;-75
2023/05/27 02:10:06;;;;;;;9.77;1.60;;;9.20;99.90;;;;;;5134873;27;20046;-76
2023/05/27 02:12:32;;;;;;;6.47;1.60;;;9.20;99.90;;;;;;5135606;27;20039;-75
2023/05/27 02:14:58;;;;;;;6.57;1.70;;;9.20;99.90;;;;;;5116428;27;20501;-75
2023/05/27 02:17:24;;;;;;;4.63;1.80;;;9.10;99.90;;;;;;5116420;28;20043;-76
2023/05/27 02:19:50;;;;;;;6.53;1.73;;;9.10;99.90;;;;;;5134834;28;20130;-75
2023/05/27 02:22:16;;;;;;;6.47;1.35;;;9.10;99.90;;;;;;5116458;28;20043;-75
2023/05/27 02:24:42;;;;;;;11.90;2.05;;;9.00;99.90;;;;;;5116309;28;20104;-75
2023/05/27 02:27:08;;;;;;;5.53;1.75;;;9.00;99.90;;;;;;5134696;28;20046;-74
2023/05/27 02:29:34;;;;;;;7.68;1.90;;;8.90;99.90;;;;;;5134697;28;20478;-75
2023/05/27 02:31:59;;;;;;;7.72;2.25;;;8.90;99.90;;;;;;5116514;28;20147;-75
2023/05/27 02:34:25;;;;;;;5.93;1.90;;;8.90;99.90;;;;;;5116502;28;20047;-75
2023/05/27 02:36:51;;;;;;;5.55;1.58;;;8.90;99.90;;;;;;5134604;28;20051;-75
2023/05/27 02:39:17;;;;;;;7.85;2.13;;;8.90;99.90;;;;;;5134659;28;20054;-75
2023/05/27 02:41:43;;;;;;;7.80;2.17;;;8.80;99.90;;;;;;5116251;28;20067;-75
2023/05/27 02:44:08;;;;;;;8.73;2.50;;;8.80;99.90;;;;;;5134578;28;20130;-75
2023/05/27 02:46:34;;;;;;;4.85;1.52;;;8.80;99.90;;;;;;5116930;28;20069;-76
2023/05/27 02:49:00;;;;;;;10.27;1.92;;;8.80;99.90;;;;;;5116429;28;20043;-75
2023/05/27 02:51:27;;;;;;;7.22;1.70;;;8.70;99.90;;;;;;5134762;28;20039;-75
2023/05/27 02:53:53;;;;;;;6.13;1.58;;;8.70;99.90;;;;;;5134471;28;20043;-75
2023/05/27 02:56:18;;;;;;;6.97;1.90;;;8.70;99.90;;;;;;5134419;28;20043;-75
2023/05/27 02:58:44;;;;;;;8.98;2.17;;;8.70;99.90;;;;;;5134076;28;20043;-75
2023/05/27 03:01:10;;;;;;;5.80;2.00;;;8.70;99.90;;;;;;5116375;28;20050;-75
2023/05/27 03:03:35;;;;;;;5.53;1.85;;;8.70;99.90;;;;;;5135005;28;20523;-76
2023/05/27 03:06:01;;;;;;;9.85;2.00;;;8.70;99.90;;;;;;5117071;28;20035;-76
2023/05/27 03:08:27;;;;;;;7.55;2.15;;;8.70;99.90;;;;;;5134336;28;20051;-75
2023/05/27 03:10:53;;;;;;;6.88;2.95;;;8.70;99.90;;;;;;5101126;27;20043;-76
2023/05/27 03:13:18;;;;;;;8.77;2.20;;;8.70;99.90;;;;;;5138734;27;20485;-75
2023/05/27 03:15:44;;;;;;;8.60;2.33;;;8.70;99.90;;;;;;5138174;27;20043;-75
2023/05/27 03:18:10;;;;;;;7.65;2.42;;;8.80;99.90;;;;;;5138927;27;20053;-75
2023/05/27 03:20:35;;;;;;;9.15;2.13;;;9.00;99.90;;;;;;5103026;27;20419;-75
2023/05/27 03:23:01;;;;;;;7.50;2.10;;;8.80;99.90;;;;;;5103477;27;20069;-75
2023/05/27 03:25:28;;;;;;;8.93;2.40;;;8.90;99.90;;;;;;5138439;27;20059;-76
2023/05/27 03:27:54;;;;;;;11.30;2.30;;;8.90;99.90;;;;;;5119776;27;20047;-75
2023/05/27 03:30:20;;;;;;;9.50;2.25;;;8.90;99.90;;;;;;5137773;27;20092;-76
2023/05/27 03:32:46;;;;;;;6.32;1.92;;;9.00;99.90;;;;;;5102857;27;20130;-75
2023/05/27 03:35:12;;;;;;;8.48;2.33;;;9.00;99.90;;;;;;5119525;27;20135;-75
2023/05/27 03:37:38;;;;;;;8.07;1.92;;;9.00;99.90;;;;;;5119722;27;20126;-75
2023/05/27 03:40:04;;;;;;;5.60;1.92;;;9.00;99.90;;;;;;5137647;27;20043;-75
2023/05/27 03:42:30;;;;;;;8.65;2.20;;;9.00;99.90;;;;;;5119228;27;20054;-75
2023/05/27 03:44:55;;;;;;;10.40;2.35;;;9.00;99.90;;;;;;5119878;27;20039;-75
2023/05/27 03:47:21;;;;;;;8.15;2.28;;;9.10;99.90;;;;;;5119268;27;20394;-75
2023/05/27 03:49:47;;;;;;;6.30;2.40;;;9.10;99.90;;;;;;5119198;27;20047;-75
2023/05/27 03:52:14;;;;;;;7.97;1.70;;;9.00;99.90;;;;;;5120176;27;20122;-76
2023/05/27 03:54:41;;;;;;;6.40;2.38;;;9.10;99.90;;;;;;5120149;27;20040;-76
2023/05/27 03:57:07;;;;;;;7.45;2.30;;;9.10;99.90;;;;;;5119364;27;20134;-76
2023/05/27 03:59:33;;;;;;;8.15;2.33;;;9.10;99.90;;;;;;5137319;27;20085;-76
2023/05/27 04:01:59;;;;;;;7.47;1.80;;;9.00;99.90;;;;;;5118965;27;20043;-76
2023/05/27 04:04:24;;;;;;;8.63;2.45;;;9.10;99.90;;;;;;5138047;27;20035;-76
2023/05/27 04:06:50;;;;;;;9.18;2.83;;;9.10;99.90;;;;;;5119355;27;20494;-76
2023/05/27 04:09:16;;;;;;;8.18;2.10;;;9.10;99.90;;;;;;5137055;27;20133;-76
2023/05/27 04:11:42;;;;;;;12.57;2.72;;;9.10;99.90;;;;;;5137028;27;20035;-76
2023/05/27 04:14:08;;;;;;;6.07;2.03;;;9.10;99.90;;;;;;5137025;27;20047;-76
2023/05/27 04:16:35;;;;;;;9.80;2.40;;;9.20;99.90;;;;;;5118864;27;20395;-76
2023/05/27 04:19:00;;;;;;;11.30;2.17;;;9.20;99.90;;;;;;5118519;27;20091;-75
2023/05/27 04:21:26;;;;;;;9.55;2.47;;;9.30;99.90;;;;;;5118149;27;20394;-75
2023/05/27 04:23:52;;;;;;;7.32;2.40;;;9.30;99.90;;;;;;5084643;27;20055;-76
2023/05/27 04:26:18;;;;;;;6.03;2.22;;;9.30;99.90;;;;;;5137678;27;20047;-76
2023/05/27 04:28:45;;;;;;;11.05;2.63;;;9.30;99.90;;;;;;5136479;27;20479;-76
2023/05/27 04:31:15;;;;;;;10.55;2.38;;;9.30;99.90;;;;;;5136718;27;20043;-76
2023/05/27 04:33:45;;;;;;;6.43;2.47;;;9.30;99.90;;;;;;5136704;27;20043;-75
2023/05/27 04:36:11;;;;;;;7.07;2.20;;;9.30;99.90;;;;;;5118358;27;20054;-76
2023/05/27 04:38:37;;;;;;;10.02;2.40;;;9.40;99.90;;;;;;5136553;27;20096;-76
2023/05/27 04:41:03;;;;;;;10.60;2.75;;;9.40;99.90;;;;;;5136742;27;20378;-77
2023/05/27 04:43:30;;;;;;;7.25;2.13;;;9.50;99.90;;;;;;5136422;27;20043;-76
2023/05/27 04:45:59;;;;;;;9.57;2.30;;;9.50;99.90;;;;;;5136472;27;20043;-76
2023/05/27 04:48:26;;;;;;;8.45;2.17;;;9.60;99.90;;;;;;5118276;27;20043;-76
2023/05/27 04:50:54;;;;;;;7.50;2.63;;;9.60;99.90;;;;;;5118076;27;20047;-76
2023/05/27 04:53:21;;;;;;;10.23;2.05;;;9.70;99.90;;;;;;5117934;27;20035;-76
2023/05/27 04:55:47;;;;;;;7.43;2.40;;;9.70;99.90;;;;;;5136241;27;20055;-76
2023/05/27 04:58:12;;;;;;;8.80;1.85;;;9.80;99.90;;;;;;5118059;27;20435;-76
2023/05/27 05:00:48;;;;;;;7.45;2.20;;;9.90;99.90;;;;;;5117809;27;20043;-76
2023/05/27 05:03:20;;;;;;;9.40;2.70;;;9.90;99.90;;;;;;5136399;27;20069;-76
2023/05/27 05:05:51;;;;;;;13.65;2.53;;;10.00;99.90;;;;;;5136077;27;20041;-76
2023/05/27 05:08:18;;;;;;;7.85;2.42;;;10.00;99.90;;;;;;5136574;27;20057;-76
2023/05/27 05:10:45;;;;;;;8.60;2.50;;;10.20;99.90;;;;;;5136433;27;20050;-76
2023/05/27 05:13:11;;;;;;;7.38;1.88;;;10.20;99.90;;;;;;5100682;27;20043;-76
2023/05/27 05:15:37;;;;;;;7.53;2.50;;;10.30;99.90;;;;;;5135616;27;20043;-76
2023/05/27 05:18:03;;;;;;;7.80;2.22;;;10.40;99.90;;;;;;5083545;27;20483;-76
2023/05/27 05:20:29;;;;;;;7.40;2.22;;;10.50;99.90;;;;;;5118010;27;20050;-76
2023/05/27 05:22:55;;;;;;;8.40;2.03;;;10.50;99.90;;;;;;5118117;27;20043;-75
2023/05/27 05:25:21;;;;;;;10.98;2.47;;;10.60;99.90;;;;;;5135448;27;20062;-76
2023/05/27 05:27:47;;;;;;;7.53;2.90;;;10.70;99.90;;;;;;5135576;27;20051;-76
2023/05/27 05:30:13;;;;;;;9.23;2.28;;;10.80;99.90;;;;;;5135516;27;20088;-76
2023/05/27 05:32:38;;;;;;;5.65;2.22;;;10.80;99.90;;;;;;5117003;27;20043;-75
2023/05/27 05:35:05;;;;;;;10.40;2.45;;;10.90;99.90;;;;;;5101001;27;20096;-76
2023/05/27 05:37:30;;;;;;;11.23;2.83;;;11.00;99.90;;;;;;5135419;27;20053;-75
2023/05/27 05:39:56;;;;;;;10.15;2.00;;;11.00;99.90;;;;;;5135342;27;20047;-76
2023/05/27 05:42:22;;;;;;;14.68;2.33;;;11.10;99.90;;;;;;5135120;27;20050;-76
2023/05/27 05:44:48;;;;;;;7.63;1.83;;;11.10;99.90;;;;;;5116944;27;20039;-76
2023/05/27 05:47:13;;;;;;;9.23;1.90;;;11.20;99.90;;;;;;5135250;27;20043;-76
2023/05/27 05:49:39;;;;;;;8.77;2.15;;;11.20;99.90;;;;;;5117145;27;20070;-75
2023/05/27 05:52:05;;;;;;;6.30;2.20;;;11.20;99.90;;;;;;5100134;27;20042;-76
2023/05/27 05:54:30;;;;;;;8.25;2.17;;;11.20;99.90;;;;;;5117044;27;20559;-75
2023/05/27 05:56:56;;;;;;;11.25;2.13;;;11.30;99.90;;;;;;5082882;27;20398;-75
2023/05/27 05:59:22;;;;;;;10.77;2.42;;;11.30;99.90;;;;;;5135036;27;20121;-75
2023/05/27 06:01:47;;;;;;;13.88;2.10;;;11.30;99.90;;;;;;5134954;27;20092;-75
2023/05/27 06:04:13;;;;;;;10.02;2.45;;;11.30;99.90;;;;;;5135018;27;20088;-75
2023/05/27 06:06:40;;;;;;;9.07;2.00;;;11.30;99.90;;;;;;5134953;27;20445;-75
2023/05/27 06:09:05;;;;;;;8.95;3.00;;;11.40;99.90;;;;;;5134599;27;20540;-75
2023/05/27 06:11:31;;;;;;;9.77;2.80;;;11.40;99.90;;;;;;5134796;27;20036;-75
2023/05/27 06:13:57;;;;;;;9.40;2.33;;;11.40;99.90;;;;;;5099781;27;20062;-75
2023/05/27 06:16:22;;;;;;;7.47;2.42;;;11.40;99.90;;;;;;5135104;27;20046;-75
2023/05/27 06:18:48;;;;;;;7.38;2.38;;;11.40;99.90;;;;;;5099503;27;20118;-75
2023/05/27 06:21:14;;;;;;;15.43;2.40;;;11.40;99.90;;;;;;5116496;27;20138;-75
2023/05/27 06:23:39;;;;;;;11.05;2.20;;;11.40;99.90;;;;;;5134430;28;20478;-75
2023/05/27 06:26:05;;;;;;;12.63;2.33;;;11.40;99.90;;;;;;5099752;28;20054;-75
2023/05/27 06:28:31;;;;;;;9.45;2.15;;;11.40;99.90;;;;;;5135540;28;20043;-74
2023/05/27 06:30:57;;;;;;;7.43;2.05;;;11.40;99.90;;;;;;5134644;28;20501;-75
2023/05/27 06:33:22;;;;;;;8.77;2.15;;;11.40;99.90;;;;;;5134670;28;20503;-75
2023/05/27 06:35:48;;;;;;;9.57;2.45;;;11.40;99.90;;;;;;5099404;28;20043;-75
2023/05/27 06:38:14;;;;;;;8.93;2.05;;;11.40;99.90;;;;;;5134551;28;20047;-74
2023/05/27 06:40:40;;;;;;;7.05;1.85;;;11.40;99.90;;;;;;5116775;28;20050;-74
2023/05/27 06:43:06;;;;;;;10.00;2.65;;;11.40;99.90;;;;;;5134404;28;20036;-75
2023/05/27 06:45:32;;;;;;;12.95;2.35;;;11.40;99.90;;;;;;5137351;27;20046;-75
2023/05/27 06:47:58;;;;;;;7.50;2.22;;;11.40;99.90;;;;;;5120611;27;20039;-74
2023/05/27 06:50:23;;;;;;;8.52;2.42;;;11.40;99.90;;;;;;5138716;27;20400;-75
2023/05/27 06:52:49;;;;;;;10.35;2.55;;;11.40;99.90;;;;;;5120346;27;20043;-75
2023/05/27 06:55:15;;;;;;;7.03;2.25;;;11.40;99.90;;;;;;5138639;27;20047;-75
2023/05/27 06:57:41;;;;;;;6.82;1.98;;;11.40;99.90;;;;;;5120396;27;20043;-75
2023/05/27 07:00:08;;;;;;;11.93;2.50;;;11.50;99.90;;;;;;5138479;27;20467;-75
2023/05/27 07:02:34;;;;;;;9.93;3.30;;;11.50;99.90;;;;;;5138364;27;20039;-75
2023/05/27 07:05:00;;;;;;;11.43;2.42;;;11.60;99.90;;;;;;5138386;27;20043;-75
2023/05/27 07:07:25;;;;;;;12.05;2.97;;;11.60;99.90;;;;;;5103545;27;20384;-75
2023/05/27 07:09:51;;;;;;;9.25;2.08;;;11.70;99.90;;;;;;5138366;27;20534;-75
2023/05/27 07:12:18;;;;;;;11.93;2.35;;;11.70;99.90;;;;;;5086210;27;20075;-75
2023/05/27 07:14:43;;;;;;;9.98;2.88;;;11.80;99.90;;;;;;5120582;27;20050;-74
2023/05/27 07:17:09;;;;;;;10.43;2.50;;;11.80;99.90;;;;;;5138765;27;20134;-75
2023/05/27 07:19:35;;;;;;;8.88;1.83;;;12.00;99.90;;;;;;5138110;27;20039;-74
2023/05/27 07:22:00;;;;;;;8.60;2.40;;;12.00;99.90;;;;;;5119650;27;20040;-75
2023/05/27 07:24:26;;;;;;;7.97;2.20;;;12.00;99.90;;;;;;5138065;27;20059;-75
2023/05/27 07:26:52;;;;;;;8.68;1.92;;;12.10;99.90;;;;;;5119580;27;20054;-75
2023/05/27 07:29:18;;;;;;;11.68;2.95;;;12.20;99.90;;;;;;5137935;27;20039;-74
2023/05/27 07:31:46;;;;;;;7.40;2.30;;;12.20;99.90;;;;;;5137896;27;20054;-74
2023/05/27 07:34:11;;;;;;;8.05;2.50;;;12.30;99.90;;;;;;5120346;27;20374;-75
2023/05/27 07:36:37;;;;;;;7.85;2.35;;;12.40;99.90;;;;;;5137733;27;20047;-75
2023/05/27 07:39:03;;;;;;;9.90;2.17;;;12.40;99.90;;;;;;5138285;27;20047;-75
2023/05/27 07:41:29;;;;;;;11.65;2.58;;;12.50;99.90;;;;;;5119395;27;20471;-75
2023/05/27 07:43:56;;;;;;;9.50;2.40;;;12.50;99.90;;;;;;5137621;27;20051;-76
2023/05/27 07:46:22;;;;;;;8.32;2.35;;;12.60;99.90;;;;;;5137246;27;20491;-75
2023/05/27 07:48:48;;;;;;;6.03;2.00;;;12.70;99.90;;;;;;5138169;27;20043;-75
2023/05/27 07:51:13;;;;;;;11.50;3.03;;;12.70;99.90;;;;;;5119721;27;20505;-76
2023/05/27 07:53:39;;;;;;;9.73;3.15;;;12.70;99.90;;;;;;5120157;27;20357;-75
2023/05/27 07:56:05;;;;;;;9.13;2.40;;;12.80;99.90;;;;;;5137232;27;20040;-75
2023/05/27 07:58:31;;;;;;;13.05;2.53;;;12.80;99.90;;;;;;5137345;27;20126;-75
2023/05/27 08:00:56;;;;;;;7.93;1.88;;;12.90;99.90;;;;;;5120022;27;20096;-75
2023/05/27 08:03:22;;;;;;;8.43;2.70;;;12.90;99.90;;;;;;5138036;27;20455;-75
2023/05/27 08:05:48;;;;;;;6.38;2.17;;;13.00;99.90;;;;;;5137219;27;20043;-75
2023/05/27 08:08:13;;;;;;;6.57;2.53;;;13.00;99.90;;;;;;5119402;27;20047;-76
2023/05/27 08:10:39;;;;;;;10.23;1.92;;;13.00;99.90;;;;;;5137774;27;20041;-76
2023/05/27 08:13:05;;;;;;;9.63;2.20;;;13.10;99.90;;;;;;5118747;27;20122;-75
2023/05/27 08:15:31;;;;;;;10.77;2.75;;;13.10;99.90;;;;;;5118866;27;20043;-75
2023/05/27 08:17:57;;;;;;;12.55;2.42;;;13.20;99.90;;;;;;5119134;27;20055;-75
2023/05/27 08:20:23;;;;;;;9.88;2.42;;;13.20;99.90;;;;;;5137205;27;20569;-75
2023/05/27 08:22:49;;;;;;;9.73;2.28;;;13.30;99.90;;;;;;5138095;27;20130;-75
2023/05/27 08:25:15;;;;;;;7.00;2.15;;;13.30;99.90;;;;;;5136362;27;20051;-75
2023/05/27 08:27:50;;;;;;;9.85;2.72;;;13.30;99.90;;;;;;5137689;27;20187;-75
2023/05/27 08:30:16;;;;;;;7.57;2.35;;;13.40;99.90;;;;;;5137347;27;20057;-75
2023/05/27 08:32:42;;;;;;;11.23;2.30;;;13.40;99.90;;;;;;5136672;27;20074;-75
2023/05/27 08:35:10;;;;;;;5.78;2.03;;;13.50;99.90;;;;;;5136642;27;20055;-75
2023/05/27 08:37:36;;;;;;;7.40;2.35;;;13.60;99.90;;;;;;5118367;27;20130;-75
2023/05/27 08:40:06;;;;;;;6.97;2.03;;;13.60;99.90;;;;;;5136555;27;20043;-76
2023/05/27 08:42:33;;;;;;;7.20;2.13;;;13.70;99.90;;;;;;5118108;27;20039;-76
2023/05/27 08:44:59;;;;;;;9.18;2.22;;;13.70;99.90;;;;;;5136508;27;20387;-75
2023/05/27 08:47:28;;;;;;;10.45;2.45;;;13.80;99.90;;;;;;5136686;27;20510;-75
2023/05/27 08:49:53;;;;;;;6.45;1.65;;;13.80;99.90;;;;;;5137180;27;20053;-76
2023/05/27 08:52:20;;;;;;;10.00;2.42;;;13.90;99.90;;;;;;5136279;27;20457;-75
2023/05/27 08:54:48;;;;;;;8.80;2.38;;;13.90;99.90;;;;;;5100799;27;20043;-75
2023/05/27 08:57:17;;;;;;;7.80;2.13;;;14.00;99.90;;;;;;5136223;27;20091;-75
2023/05/27 08:59:43;;;;;;;11.07;2.30;;;14.00;99.90;;;;;;5101845;27;20120;-75
2023/05/27 09:02:12;;;;;;;7.70;2.00;;;14.10;99.90;;;;;;5136090;27;20054;-76
2023/05/27 09:04:41;;;;;;;6.72;2.35;;;14.10;99.90;;;;;;5136034;27;20043;-75
2023/05/27 09:07:08;;;;;;;8.82;2.10;;;14.20;99.90;;;;;;5135585;27;20495;-76
2023/05/27 09:09:34;;;;;;;7.82;2.13;;;14.30;99.90;;;;;;5135065;27;20047;-75
2023/05/27 09:12:02;;;;;;;9.50;2.85;;;14.30;99.90;;;;;;5117703;27;20087;-76
2023/05/27 09:14:29;;;;;;;10.07;2.00;;;14.30;99.90;;;;;;5135790;27;20039;-75
2023/05/27 09:16:55;;;;;;;9.20;2.63;;;14.40;99.90;;;;;;5135845;27;20047;-76
2023/05/27 09:19:21;;;;;;;10.27;2.58;;;14.40;99.90;;;;;;5136343;27;20047;-76
2023/05/27 09:21:52;;;;;;;8.85;2.60;;;14.50;99.90;;;;;;5135633;27;20070;-75
2023/05/27 09:24:18;;;;;;;10.00;2.75;;;14.60;99.90;;;;;;5117357;27;20054;-75
2023/05/27 09:26:44;;;;;;;7.00;2.10;;;14.60;99.90;;;;;;5135691;27;20047;-75
2023/05/27 09:29:10;;;;;;;7.00;2.05;;;14.70;99.90;;;;;;5118283;27;20084;-76
2023/05/27 09:31:40;;;;;;;8.77;2.53;;;14.70;99.90;;;;;;5135562;27;20047;-75
2023/05/27 09:34:19;;;;;;;6.68;2.60;;;14.80;99.90;;;;;;5117466;27;20054;-75
2023/05/27 09:36:49;;;;;;;7.75;2.60;;;14.90;99.90;;;;;;5135999;27;20047;-75
2023/05/27 09:39:18;;;;;;;9.80;2.72;;;14.90;99.90;;;;;;5136005;27;20054;-75
2023/05/27 09:41:49;;;;;;;7.70;2.72;;;15.00;99.90;;;;;;5116886;27;20046;-75
2023/05/27 09:44:15;;;;;;;7.90;2.75;;;15.00;99.90;;;;;;5135924;27;20399;-75
2023/05/27 09:46:45;;;;;;;5.93;2.80;;;15.00;99.90;;;;;;5135275;27;20043;-75
2023/05/27 09:49:16;;;;;;;7.28;2.80;;;15.10;99.90;;;;;;5117044;27;20047;-75
2023/05/27 09:51:42;;;;;;;6.53;2.33;;;15.10;99.90;;;;;;5136079;27;20357;-75
2023/05/27 09:54:12;;;;;;;10.13;2.80;;;15.10;99.90;;;;;;5100857;27;20055;-75
2023/05/27 09:56:38;;;;;;;11.02;2.78;;;15.20;99.90;;;;;;5135093;27;20054;-76
2023/05/27 09:59:06;;;;;;;9.35;2.85;;;15.20;99.90;;;;;;5117389;27;20118;-75
2023/05/27 10:01:32;;;;;;;11.48;2.33;;;15.20;99.90;;;;;;5135595;27;20093;-76
2023/05/27 10:03:58;;;;;;;7.22;2.47;;;15.20;99.90;;;;;;5135021;27;20096;-77
2023/05/27 10:06:25;;;;;;;12.48;3.17;;;15.30;99.90;;;;;;5134978;27;20047;-76
2023/05/27 10:08:52;;;;;;;9.07;2.80;;;15.30;99.90;;;;;;5116811;27;20471;-76
2023/05/27 10:11:19;;;;;;;9.45;2.50;;;15.30;99.90;;;;;;5134869;27;20100;-75
2023/05/27 10:13:46;;;;;;;8.00;2.90;;;15.40;99.90;;;;;;5134922;27;20051;-76
2023/05/27 10:16:21;;;;;;;6.78;3.03;;;15.50;99.90;;;;;;5134863;27;20067;-76
2023/05/27 10:18:52;;;;;;;10.55;3.17;;;15.50;99.90;;;;;;5116370;27;20046;-76
2023/05/27 10:21:23;;;;;;;11.55;2.85;;;15.60;99.90;;;;;;5100718;27;20043;-76
2023/05/27 10:23:56;;;;;;;9.15;2.90;;;15.70;99.90;;;;;;5134811;27;20054;-76
2023/05/27 10:26:37;;;;;;;7.38;2.88;;;15.80;99.90;;;;;;5135421;28;20134;-76
2023/05/27 10:29:10;;;;;;;8.70;3.15;;;15.80;99.90;;;;;;5135615;28;20471;-76
2023/05/27 10:31:47;;;;;;;10.93;3.13;;;15.90;99.90;;;;;;5134741;28;20122;-77
2023/05/27 10:34:13;;;;;;;12.05;3.15;;;16.00;99.90;;;;;;5135032;28;20115;-75
2023/05/27 10:36:39;;;;;;;8.00;2.90;;;16.00;99.90;;;;;;5116564;28;20047;-77
2023/05/27 10:39:16;;;;;;;11.02;3.35;;;16.00;99.90;;;;;;5116509;28;20506;-77
2023/05/27 10:41:52;;;;;;;11.23;3.38;;;16.00;99.90;;;;;;5118587;28;20078;-78
2023/05/27 10:44:36;;;;;;;7.80;2.65;;;16.00;99.90;;;;;;5116541;28;20471;-76
2023/05/27 10:47:11;;;;;;;8.38;3.47;;;16.10;99.90;;;;;;5134496;28;20043;-76
2023/05/27 10:49:39;;;;;;;10.73;3.15;;;16.10;99.90;;;;;;5116785;28;20094;-77
2023/05/27 10:52:15;;;;;;;10.45;3.13;;;16.20;99.90;;;;;;5099164;28;20126;-77
2023/05/27 10:54:50;;;;;;;7.72;3.40;;;16.20;99.90;;;;;;5134488;28;20046;-77
2023/05/27 10:57:17;;;;;;;10.00;3.10;;;16.30;99.90;;;;;;5135092;28;20516;-77
2023/05/27 10:59:53;;;;;;;10.32;2.88;;;16.30;99.90;;;;;;5116407;28;20069;-77
2023/05/27 11:02:20;;;;;;;10.65;2.88;;;16.30;99.90;;;;;;5116156;28;20058;-77
2023/05/27 11:04:47;;;;;;;8.50;2.90;;;16.30;99.90;;;;;;5134362;28;20035;-77
2023/05/27 11:07:17;;;;;;;8.38;2.80;;;16.30;99.90;;;;;;5117132;28;20058;-77
2023/05/27 11:09:51;;;;;;;11.02;3.38;;;16.40;99.90;;;;;;5134043;28;20403;-78
2023/05/27 11:12:18;;;;;;;12.27;3.22;;;16.40;99.90;;;;;;5099139;28;20047;-78
2023/05/27 11:14:45;;;;;;;8.40;2.88;;;16.50;99.90;;;;;;5116153;28;20536;-77
2023/05/27 11:17:14;;;;;;;8.88;2.88;;;16.50;99.90;;;;;;5117006;28;20055;-78
2023/05/27 11:19:40;;;;;;;9.73;3.10;;;16.60;99.90;;;;;;5115847;28;20460;-78
2023/05/27 11:22:08;;;;;;;8.07;2.20;;;16.60;99.90;;;;;;5134127;28;20208;-78
2023/05/27 11:24:35;;;;;;;9.85;3.15;;;16.60;99.90;;;;;;5134036;28;20059;-76
2023/05/27 11:27:08;;;;;;;12.82;3.80;;;16.60;99.90;;;;;;5135025;28;20104;-77
2023/05/27 11:29:33;;;;;;;6.57;3.20;;;16.70;99.90;;;;;;5134264;28;20502;-78
2023/05/27 11:31:59;;;;;;;6.72;2.95;;;16.80;99.90;;;;;;5135783;27;20039;-77
2023/05/27 11:34:27;;;;;;;8.63;2.88;;;16.80;99.90;;;;;;5103066;27;20043;-78
2023/05/27 11:36:53;;;;;;;9.45;2.88;;;16.80;99.90;;;;;;5120369;27;20179;-78
2023/05/27 11:39:19;;;;;;;6.63;2.80;;;16.80;99.90;;;;;;5137780;27;20499;-78
2023/05/27 11:41:55;;;;;;;6.90;3.08;;;16.80;99.90;;;;;;5138120;27;20088;-77
2023/05/27 11:44:22;;;;;;;8.20;2.88;;;16.80;99.90;;;;;;5137646;27;20047;-78
2023/05/27 11:46:49;;;;;;;7.72;2.95;;;16.90;99.90;;;;;;5137860;27;20047;-77
2023/05/27 11:49:17;;;;;;;8.48;3.25;;;17.00;99.90;;;;;;5102491;27;20042;-78
2023/05/27 11:51:47;;;;;;;7.68;3.03;;;17.10;99.90;;;;;;5119774;27;20111;-78
2023/05/27 11:54:25;;;;;;;9.60;2.97;;;17.10;99.90;;;;;;5120196;27;20044;-77
2023/05/27 11:56:52;;;;;;;7.80;2.53;;;17.20;99.90;;;;;;5138933;27;20188;-78
2023/05/27 11:59:19;;;;;;;8.38;3.25;;;17.30;99.90;;;;;;5137675;27;20050;-78
2023/05/27 12:01:44;;;;;;;9.85;2.78;;;17.30;99.90;;;;;;5102245;27;20044;-78
2023/05/27 12:04:10;;;;;;;9.55;2.83;;;17.40;99.90;;;;;;5137379;27;20051;-78
2023/05/27 12:06:37;;;;;;;11.00;3.47;;;17.50;99.90;;;;;;5119133;27;20104;-78
2023/05/27 12:09:07;;;;;;;8.60;3.05;;;17.50;99.90;;;;;;5137261;27;20465;-78
2023/05/27 12:11:34;;;;;;;6.75;3.13;;;17.40;99.90;;;;;;5137207;27;20074;-77
2023/05/27 12:14:01;;;;;;;8.90;2.90;;;17.40;99.90;;;;;;5137111;27;20061;-76
2023/05/27 12:16:26;;;;;;;9.90;3.13;;;17.60;99.90;;;;;;5119756;27;20515;-76
2023/05/27 12:18:52;;;;;;;7.47;3.08;;;17.70;99.90;;;;;;5137031;27;20086;-78
2023/05/27 12:21:19;;;;;;;6.72;2.85;;;17.70;99.90;;;;;;5136953;27;20126;-78
2023/05/27 12:23:46;;;;;;;12.27;3.38;;;17.70;99.90;;;;;;5136832;27;20051;-78
2023/05/27 12:26:13;;;;;;;7.45;2.78;;;17.90;99.90;;;;;;5137461;27;20093;-78
2023/05/27 12:28:39;;;;;;;6.38;2.72;;;17.90;99.90;;;;;;5118448;27;20043;-76
2023/05/27 12:31:05;;;;;;;10.18;2.95;;;17.90;99.90;;;;;;5137338;27;20043;-78
2023/05/27 12:33:31;;;;;;;6.93;2.90;;;18.00;99.90;;;;;;5136747;27;20479;-78
2023/05/27 12:35:57;;;;;;;7.03;3.00;;;18.00;99.90;;;;;;5137227;27;20099;-79
2023/05/27 12:38:23;;;;;;;8.25;2.58;;;18.00;99.90;;;;;;5118125;27;20478;-78
2023/05/27 12:40:49;;;;;;;7.82;2.30;;;18.00;99.90;;;;;;5118043;27;20054;-78
2023/05/27 12:43:15;;;;;;;10.90;2.85;;;18.10;99.90;;;;;;5117938;27;20040;-80
2023/05/27 12:45:41;;;;;;;6.65;2.92;;;18.10;99.90;;;;;;5119243;27;20183;-78
2023/05/27 12:48:07;;;;;;;10.20;3.00;;;18.20;99.90;;;;;;5136063;27;20082;-76